Arlington, Ohio
Current Conditions -  °F | °C
As of 8:53 AM on Thursday 23 Oct 2014 (Local Time) from KFDY Reporting Station
Moderate Fog Moderate Fog  
Wind Chill: 31°   Ceiling: 200
Heat Index: 35°   Visibility: 0.25mi
Dew Point: 33°   Wind: 5mph
Humidity: 92%   Direction: 290°WNW
Pressure: 30.24"   Gusts: NA
Location:  40.89°N, 83.65°W
Report Text: KFDY 231253Z AUTO 29004KT 1/4SM FG VV002 02/01 A3024 RMK AO2 SLP242 T00170006
Loading
Personal Weather Stations






























Interactive Weather Map
Tropical Storm Tracking
New forecast layout! Learn more

10-Day Weather Forecast

Advertisements
Track Severe Weather on mobile